Time;durP1;ratioP1;P1;durP2;ratioP2;P2;SDS_P1;SDS_P2;PMS_P1;PMS_P2;Temp;Humidity;BMP_temperature;BMP_pressure;BME280_temperature;BME280_humidity;BME280_pressure;Samples;Min_cycle;Max_cycle;Signal;HPM_P1;HPM_P2
2021/01/25 00:01:08;;;;;;;8.18;2.72;;;17.90;40.00;;;;;;5067834;28;20023;-65
2021/01/25 00:03:34;;;;;;;6.82;3.35;;;17.90;41.10;;;;;;5068591;28;20036;-65
2021/01/25 00:06:00;;;;;;;;;;;17.90;40.70;;;;;;5075974;28;20019;-65
2021/01/25 00:08:27;;;;;;;7.10;2.30;;;17.90;40.10;;;;;;5066317;28;19904;-70
2021/01/25 00:10:54;;;;;;;6.35;2.10;;;18.70;39.80;;;;;;5088658;28;20020;-65
2021/01/25 00:13:20;;;;;;;2.13;1.40;;;19.90;36.60;;;;;;5086787;28;20092;-65
2021/01/25 00:15:50;;;;;;;16.85;6.10;;;19.90;35.80;;;;;;5069181;28;20488;-66
2021/01/25 00:18:17;;;;;;;7.85;3.45;;;19.90;36.50;;;;;;5066506;28;20119;-65
2021/01/25 00:20:44;;;;;;;10.32;2.40;;;21.00;34.20;;;;;;5079406;28;20481;-64
2021/01/25 00:23:10;;;;;;;4.72;1.45;;;20.90;33.30;;;;;;5093125;28;20020;-65
2021/01/25 00:25:37;;;;;;;8.07;2.50;;;20.30;34.20;;;;;;5066984;28;20040;-64
2021/01/25 00:28:03;;;;;;;7.68;2.65;;;19.40;35.90;;;;;;5085237;28;20456;-65
2021/01/25 00:30:30;;;;;;;5.13;2.75;;;18.60;37.70;;;;;;5092657;28;20060;-65
2021/01/25 00:32:57;;;;;;;5.28;2.83;;;18.40;38.80;;;;;;5088075;28;20032;-66
2021/01/25 00:35:23;;;;;;;1.83;1.52;;;18.20;39.60;;;;;;5083522;28;20032;-65
2021/01/25 00:37:50;;;;;;;5.13;2.03;;;17.90;39.20;;;;;;5084575;28;20027;-65
2021/01/25 00:40:17;;;;;;;5.25;1.88;;;17.60;39.70;;;;;;5081445;28;20085;-65
2021/01/25 00:42:43;;;;;;;17.40;2.72;;;17.50;40.30;;;;;;5089897;28;20127;-65
2021/01/25 00:45:09;;;;;;;;;;;17.10;40.10;;;;;;5084769;28;20648;-64
2021/01/25 00:47:36;;;;;;;15.52;2.17;;;17.10;40.50;;;;;;5081363;28;19991;-66
2021/01/25 00:50:04;;;;;;;7.45;1.48;;;16.90;40.90;;;;;;5081836;28;20192;-65
2021/01/25 00:52:30;;;;;;;10.90;1.90;;;16.80;41.60;;;;;;5080615;28;20020;-64
2021/01/25 00:54:57;;;;;;;;;;;16.60;41.90;;;;;;5086014;28;20038;-65
2021/01/25 00:57:23;;;;;;;17.08;2.85;;;16.50;42.70;;;;;;5064115;28;19915;-65
2021/01/25 00:59:49;;;;;;;;;;;16.40;42.90;;;;;;5078799;28;20063;-65
2021/01/25 01:02:16;;;;;;;4.68;2.30;;;16.30;43.10;;;;;;5059941;28;20029;-65
2021/01/25 01:04:42;;;;;;;;;;;16.20;43.40;;;;;;5079523;28;20070;-65
2021/01/25 01:07:08;;;;;;;24.75;5.18;;;16.20;44.10;;;;;;5075773;28;20046;-65
2021/01/25 01:09:34;;;;;;;;;;;16.20;44.50;;;;;;5078649;28;20118;-65
2021/01/25 01:12:01;;;;;;;6.88;2.65;;;16.00;44.10;;;;;;5065411;28;19940;-65
2021/01/25 01:14:27;;;;;;;;;;;15.80;44.00;;;;;;5082133;28;20033;-65
2021/01/25 01:16:54;;;;;;;16.98;3.40;;;15.70;44.50;;;;;;5075125;28;19904;-64
2021/01/25 01:19:20;;;;;;;;;;;15.70;44.70;;;;;;5088575;28;20028;-63
2021/01/25 01:21:46;;;;;;;9.55;3.30;;;15.70;45.00;;;;;;5065506;28;20499;-64
2021/01/25 01:24:15;;;;;;;22.48;4.25;;;15.70;45.40;;;;;;5082697;28;20027;-64
2021/01/25 01:26:42;;;;;;;16.65;3.42;;;15.70;45.40;;;;;;5066630;28;20177;-64
2021/01/25 01:29:09;;;;;;;11.18;3.58;;;15.50;45.70;;;;;;5084760;28;20071;-64
2021/01/25 01:31:35;;;;;;;;;;;15.40;46.00;;;;;;5066665;28;20030;-65
2021/01/25 01:34:02;;;;;;;10.70;2.65;;;15.30;46.30;;;;;;5071103;28;19942;-65
2021/01/25 01:36:29;;;;;;;10.48;3.13;;;15.30;47.20;;;;;;5009572;28;2101415;-64
2021/01/25 01:38:55;;;;;;;;;;;15.20;47.60;;;;;;5103315;28;20112;-65
2021/01/25 01:41:21;;;;;;;21.25;3.80;;;15.20;47.60;;;;;;5077797;28;19922;-65
2021/01/25 01:43:47;;;;;;;;;;;15.20;47.90;;;;;;5099360;28;20093;-64
2021/01/25 01:46:14;;;;;;;17.95;3.72;;;15.10;47.80;;;;;;5089751;28;20363;-65
2021/01/25 01:48:42;;;;;;;21.77;6.32;;;15.10;48.50;;;;;;5109543;28;20053;-65
2021/01/25 01:51:08;;;;;;;36.30;14.48;;;15.10;49.50;;;;;;5083832;28;20054;-65
2021/01/25 01:53:35;;;;;;;17.38;7.50;;;15.10;49.60;;;;;;5068626;28;20108;-64
2021/01/25 01:56:01;;;;;;;;;;;15.00;49.60;;;;;;5109439;28;20031;-64
2021/01/25 01:58:29;;;;;;;21.15;5.28;;;15.00;49.90;;;;;;5083532;28;20269;-65
2021/01/25 02:00:56;;;;;;;30.35;6.43;;;15.00;49.70;;;;;;5101861;28;20032;-64
2021/01/25 02:03:22;;;;;;;32.13;5.72;;;14.90;49.50;;;;;;5106043;28;20542;-64
2021/01/25 02:05:49;;;;;;;;;;;14.80;49.80;;;;;;5093655;28;20039;-64
2021/01/25 02:08:16;;;;;;;31.08;6.85;;;14.70;50.00;;;;;;5100063;28;19923;-65
2021/01/25 02:10:43;;;;;;;20.33;8.20;;;14.70;50.60;;;;;;5098330;28;20039;-65
2021/01/25 02:13:10;;;;;;;24.40;7.25;;;14.70;50.60;;;;;;5102613;28;20492;-65
2021/01/25 02:15:37;;;;;;;21.67;6.05;;;14.70;50.40;;;;;;5102150;28;20030;-65
2021/01/25 02:18:03;;;;;;;;;;;14.50;50.40;;;;;;5101850;28;20107;-65
2021/01/25 02:20:35;;;;;;;27.15;5.15;;;14.50;50.00;;;;;;5103789;28;20360;-65
2021/01/25 02:23:32;;;;;;;14.32;3.78;;;14.50;50.60;;;;;;5102728;28;20500;-64
2021/01/25 02:26:12;;;;;;;11.70;3.35;;;14.40;50.40;;;;;;5105809;28;20062;-65
2021/01/25 02:28:40;;;;;;;15.90;4.28;;;14.40;50.50;;;;;;5098876;28;20045;-65
2021/01/25 02:31:10;;;;;;;16.15;3.80;;;14.30;50.40;;;;;;5096621;28;20039;-64
2021/01/25 02:33:46;;;;;;;15.90;5.53;;;14.30;51.10;;;;;;5108800;28;20146;-65
2021/01/25 02:36:15;;;;;;;14.48;3.80;;;14.30;50.60;;;;;;5105320;28;20078;-64
2021/01/25 02:38:44;;;;;;;12.75;2.35;;;14.30;50.20;;;;;;5103293;28;20039;-65
2021/01/25 02:41:13;;;;;;;16.85;2.95;;;14.30;50.00;;;;;;5110708;28;20051;-64
2021/01/25 02:43:41;;;;;;;9.68;3.85;;;14.30;49.40;;;;;;5108635;28;20107;-64
2021/01/25 02:46:09;;;;;;;12.02;2.85;;;14.30;50.00;;;;;;5102822;28;20041;-65
2021/01/25 02:48:37;;;;;;;9.27;2.40;;;14.30;48.90;;;;;;5087595;28;20029;-64
2021/01/25 02:51:06;;;;;;;6.72;2.70;;;14.40;48.50;;;;;;5102263;28;20050;-64
2021/01/25 02:53:33;;;;;;;6.18;2.17;;;14.40;48.50;;;;;;5098357;28;20056;-63
2021/01/25 02:55:59;;;;;;;;;;;14.40;48.50;;;;;;5086272;28;20093;-64
2021/01/25 02:58:27;;;;;;;16.23;2.70;;;14.40;48.10;;;;;;5109039;28;20023;-65
2021/01/25 03:00:53;;;;;;;6.15;1.95;;;14.40;49.10;;;;;;5100465;28;20302;-64
2021/01/25 03:03:22;;;;;;;14.90;2.90;;;14.40;48.50;;;;;;5106519;28;20052;-64
2021/01/25 03:05:49;;;;;;;5.97;2.40;;;14.40;48.20;;;;;;5102378;28;20404;-64
2021/01/25 03:08:16;;;;;;;14.82;3.08;;;14.30;48.10;;;;;;5106766;28;20031;-64
2021/01/25 03:10:45;;;;;;;12.27;2.30;;;14.30;47.80;;;;;;5083693;28;20384;-65
2021/01/25 03:13:12;;;;;;;9.68;2.30;;;14.20;48.00;;;;;;5110777;28;20480;-64
2021/01/25 03:15:41;;;;;;;4.85;2.17;;;14.30;48.30;;;;;;5080893;28;20041;-65
2021/01/25 03:18:07;;;;;;;9.27;2.72;;;14.20;48.70;;;;;;5102280;28;20035;-65
2021/01/25 03:20:33;;;;;;;;;;;14.10;48.50;;;;;;5107309;28;20573;-64
2021/01/25 03:23:00;;;;;;;11.40;4.13;;;14.10;48.80;;;;;;5101340;28;19924;-65
2021/01/25 03:25:26;;;;;;;14.30;6.03;;;14.10;49.20;;;;;;5097783;28;20488;-65
2021/01/25 03:27:53;;;;;;;;;;;14.00;49.40;;;;;;5106803;28;20056;-65
2021/01/25 03:30:20;;;;;;;10.48;3.83;;;14.00;49.30;;;;;;5100433;28;19920;-65
2021/01/25 03:32:46;;;;;;;;;;;13.90;49.40;;;;;;5098376;28;20147;-65
2021/01/25 03:35:13;;;;;;;7.57;3.17;;;13.90;49.70;;;;;;5103341;28;19945;-65
2021/01/25 03:37:40;;;;;;;9.77;2.97;;;13.80;49.60;;;;;;5097230;28;20501;-65
2021/01/25 03:40:07;;;;;;;3.72;1.95;;;13.80;49.60;;;;;;5102887;28;20028;-65
2021/01/25 03:42:34;;;;;;;7.60;2.60;;;13.80;49.60;;;;;;5111752;28;20097;-65
2021/01/25 03:45:01;;;;;;;5.55;2.33;;;13.80;49.90;;;;;;5099821;28;20040;-65
2021/01/25 03:47:28;;;;;;;12.02;2.20;;;13.80;49.80;;;;;;5086362;28;20040;-65
2021/01/25 03:49:54;;;;;;;;;;;13.80;50.20;;;;;;5103068;28;20086;-65
2021/01/25 03:52:20;;;;;;;8.13;2.05;;;13.80;50.60;;;;;;5093601;28;19920;-65
2021/01/25 03:54:47;;;;;;;4.32;1.55;;;13.80;49.90;;;;;;5095770;28;20157;-64
2021/01/25 03:57:13;;;;;;;;;;;13.80;50.60;;;;;;5095566;28;20491;-64
2021/01/25 03:59:39;;;;;;;4.50;1.80;;;13.80;50.50;;;;;;5084660;28;20353;-65
2021/01/25 04:02:06;;;;;;;;;;;13.80;51.50;;;;;;5094987;28;20042;-65
2021/01/25 04:04:32;;;;;;;7.93;2.45;;;13.80;51.30;;;;;;5111724;28;20317;-65
2021/01/25 04:06:59;;;;;;;9.18;2.20;;;13.80;51.40;;;;;;5106519;28;20067;-66
2021/01/25 04:09:25;;;;;;;12.32;2.30;;;13.70;50.90;;;;;;5102043;28;20122;-64
2021/01/25 04:11:52;;;;;;;;;;;13.70;51.10;;;;;;5108017;28;20158;-64
2021/01/25 04:14:18;;;;;;;11.90;2.33;;;13.70;51.90;;;;;;5109032;28;19964;-65
2021/01/25 04:16:44;;;;;;;;;;;13.70;51.90;;;;;;5082881;28;20044;-65
2021/01/25 04:19:11;;;;;;;5.05;2.33;;;13.60;51.90;;;;;;5098306;28;20023;-65
2021/01/25 04:21:37;;;;;;;10.95;3.17;;;13.60;53.00;;;;;;5095636;28;20037;-65
2021/01/25 04:24:04;;;;;;;;;;;13.60;53.10;;;;;;5096550;28;20041;-65
2021/01/25 04:26:30;;;;;;;10.93;3.65;;;13.50;53.60;;;;;;5101452;28;19928;-65
2021/01/25 04:28:57;;;;;;;14.50;5.18;;;13.50;54.10;;;;;;5094498;28;20042;-64
2021/01/25 04:31:23;;;;;;;10.75;4.07;;;13.40;53.50;;;;;;5102207;28;20495;-64
2021/01/25 04:33:49;;;;;;;;;;;13.30;52.40;;;;;;5099973;28;20450;-65
2021/01/25 04:36:16;;;;;;;9.00;3.35;;;13.30;52.60;;;;;;5105063;28;20355;-66
2021/01/25 04:38:42;;;;;;;15.68;3.72;;;13.20;52.80;;;;;;5100273;28;20442;-65
2021/01/25 04:41:09;;;;;;;19.13;4.13;;;13.10;53.30;;;;;;5087435;28;20038;-65
2021/01/25 04:43:36;;;;;;;19.20;5.25;;;13.10;53.90;;;;;;5103620;28;20098;-65
2021/01/25 04:46:03;;;;;;;14.25;6.57;;;13.10;54.20;;;;;;5115773;27;20106;-64
2021/01/25 04:48:32;;;;;;;14.25;6.80;;;13.00;54.50;;;;;;5100639;28;20039;-65
2021/01/25 04:50:59;;;;;;;20.35;7.30;;;13.00;54.00;;;;;;5097684;28;20034;-65
2021/01/25 04:53:27;;;;;;;18.48;5.30;;;12.90;54.60;;;;;;5097993;28;20070;-65
2021/01/25 04:55:54;;;;;;;16.15;5.03;;;12.80;54.70;;;;;;5098815;28;20039;-65
2021/01/25 04:58:20;;;;;;;17.33;4.38;;;12.80;55.10;;;;;;5095487;28;20054;-65
2021/01/25 05:00:47;;;;;;;13.00;3.97;;;12.80;55.40;;;;;;5100160;28;20034;-65
2021/01/25 05:03:14;;;;;;;16.33;4.97;;;12.80;56.00;;;;;;5104111;28;20040;-66
2021/01/25 05:05:41;;;;;;;16.02;4.90;;;12.80;56.80;;;;;;5086616;28;20041;-64
2021/01/25 05:08:07;;;;;;;;;;;12.80;57.40;;;;;;5101938;28;20042;-66
2021/01/25 05:10:33;;;;;;;17.85;6.85;;;12.80;57.50;;;;;;5100330;28;20275;-66
2021/01/25 05:13:00;;;;;;;17.60;5.78;;;12.70;58.50;;;;;;5090777;28;20056;-64
2021/01/25 05:15:30;;;;;;;;;;;12.60;58.40;;;;;;5089445;28;20049;-64
2021/01/25 05:18:06;;;;;;;26.55;5.88;;;12.60;59.30;;;;;;5098578;28;19922;-64
2021/01/25 05:20:33;;;;;;;24.45;6.68;;;12.60;59.10;;;;;;5103310;28;20466;-64
2021/01/25 05:23:02;;;;;;;16.08;6.25;;;12.60;59.80;;;;;;5076703;28;20042;-65
2021/01/25 05:25:33;;;;;;;16.92;5.97;;;12.50;61.50;;;;;;5085836;28;20098;-64
2021/01/25 05:28:00;;;;;;;15.45;6.40;;;12.50;62.30;;;;;;5103101;28;20088;-64
2021/01/25 05:30:28;;;;;;;15.15;5.57;;;12.50;62.80;;;;;;5106396;28;20386;-64
2021/01/25 05:32:58;;;;;;;21.90;6.55;;;12.50;62.70;;;;;;5086983;28;20525;-65
2021/01/25 05:35:27;;;;;;;18.73;5.97;;;12.50;62.70;;;;;;5110610;28;20078;-65
2021/01/25 05:37:59;;;;;;;16.80;5.90;;;12.40;62.80;;;;;;5105812;28;20060;-65
2021/01/25 05:40:32;;;;;;;15.25;5.88;;;12.40;63.40;;;;;;5101728;28;20092;-65
2021/01/25 05:42:58;;;;;;;13.55;6.30;;;12.40;64.20;;;;;;5102591;28;20368;-64
2021/01/25 05:45:27;;;;;;;;;;;12.30;63.90;;;;;;5104879;28;20081;-64
2021/01/25 05:47:58;;;;;;;18.95;6.80;;;12.30;64.00;;;;;;5085808;28;20027;-64
2021/01/25 05:50:30;;;;;;;19.35;6.95;;;12.30;64.70;;;;;;5104126;28;20042;-65
2021/01/25 05:52:59;;;;;;;21.17;6.40;;;12.20;65.30;;;;;;5097859;28;20049;-63
2021/01/25 05:55:26;;;;;;;17.73;5.10;;;12.20;66.00;;;;;;5094455;28;20383;-63
2021/01/25 05:57:52;;;;;;;11.43;4.38;;;12.20;66.10;;;;;;5101033;28;20059;-67
2021/01/25 06:00:20;;;;;;;18.20;4.95;;;12.20;65.80;;;;;;5097800;28;20099;-65
2021/01/25 06:02:49;;;;;;;9.07;3.60;;;12.30;66.70;;;;;;5106754;28;20475;-66
2021/01/25 06:05:30;;;;;;;10.15;4.00;;;12.30;67.00;;;;;;5082972;28;20047;-64
2021/01/25 06:08:20;;;;;;;12.93;4.93;;;12.20;66.10;;;;;;5096693;28;20453;-66
2021/01/25 06:10:58;;;;;;;9.70;4.70;;;12.20;66.90;;;;;;5093465;28;20045;-65
2021/01/25 06:13:41;;;;;;;16.10;5.13;;;12.30;67.60;;;;;;5089872;28;20056;-64
2021/01/25 06:16:11;;;;;;;15.98;5.18;;;12.30;67.20;;;;;;5105032;28;20037;-65
2021/01/25 06:18:41;;;;;;;15.00;5.00;;;12.30;67.80;;;;;;5099539;28;20402;-64
2021/01/25 06:21:11;;;;;;;12.48;4.85;;;12.30;69.20;;;;;;5103056;28;20497;-65
2021/01/25 06:23:38;;;;;;;15.15;6.22;;;12.30;70.00;;;;;;5113973;28;20463;-66
2021/01/25 06:26:06;;;;;;;22.95;9.82;;;12.20;70.30;;;;;;5087940;28;20582;-65
2021/01/25 06:28:34;;;;;;;15.48;6.75;;;12.10;70.40;;;;;;5087568;28;20107;-67
2021/01/25 06:31:01;;;;;;;16.05;5.45;;;12.00;70.80;;;;;;5106100;28;20109;-66
2021/01/25 06:33:34;;;;;;;18.27;5.40;;;12.00;71.90;;;;;;5098958;28;20130;-65
2021/01/25 06:36:00;;;;;;;13.02;5.00;;;12.10;72.90;;;;;;5101026;28;20082;-66
2021/01/25 06:38:27;;;;;;;;;;;12.20;73.10;;;;;;5088880;28;20507;-63
2021/01/25 06:40:53;;;;;;;17.17;5.28;;;12.20;72.60;;;;;;5105521;28;19922;-64
2021/01/25 06:43:20;;;;;;;15.90;5.10;;;12.20;73.70;;;;;;5093578;28;20039;-65
2021/01/25 06:45:47;;;;;;;;;;;12.20;73.30;;;;;;5108087;28;20042;-63
2021/01/25 06:48:16;;;;;;;21.63;4.60;;;12.20;73.40;;;;;;5102022;28;20010;-64
2021/01/25 06:50:48;;;;;;;16.15;4.70;;;12.20;72.20;;;;;;5101259;28;20113;-64
2021/01/25 06:53:15;;;;;;;20.73;5.32;;;12.10;72.10;;;;;;5089770;28;20060;-67
2021/01/25 06:55:43;;;;;;;17.33;5.20;;;12.20;73.30;;;;;;5113031;28;20168;-65
2021/01/25 06:58:14;;;;;;;20.50;5.78;;;12.20;73.70;;;;;;5109048;28;20611;-65
2021/01/25 07:00:41;;;;;;;24.83;6.38;;;12.20;73.30;;;;;;5092518;28;20047;-63
2021/01/25 07:03:08;;;;;;;;;;;12.10;73.20;;;;;;5090807;28;20032;-65
2021/01/25 07:05:38;;;;;;;20.70;7.38;;;12.10;73.40;;;;;;5093945;28;19972;-65
2021/01/25 07:08:21;;;;;;;27.25;8.95;;;12.10;73.90;;;;;;5111700;28;20133;-65
2021/01/25 07:11:04;;;;;;;24.17;8.20;;;12.10;74.40;;;;;;5089477;28;20526;-65
2021/01/25 07:13:36;;;;;;;27.25;8.50;;;12.10;73.90;;;;;;5093673;28;20207;-63
2021/01/25 07:16:04;;;;;;;25.00;8.82;;;12.10;73.20;;;;;;5107081;27;20038;-64
2021/01/25 07:18:31;;;;;;;32.65;11.82;;;12.10;73.30;;;;;;5107903;28;20043;-64
2021/01/25 07:21:00;;;;;;;42.42;11.70;;;12.10;71.70;;;;;;5090675;28;20068;-64
2021/01/25 07:23:28;;;;;;;40.42;13.30;;;12.20;71.50;;;;;;5107770;28;20042;-64
2021/01/25 07:25:56;;;;;;;36.30;13.05;;;12.20;70.50;;;;;;5093718;28;20563;-64
2021/01/25 07:28:24;;;;;;;40.28;14.27;;;12.30;70.50;;;;;;5091456;28;20176;-65
2021/01/25 07:30:51;;;;;;;36.50;14.52;;;12.30;70.30;;;;;;5105141;28;20039;-64
2021/01/25 07:33:19;;;;;;;43.65;15.52;;;12.30;69.70;;;;;;5093910;28;20060;-64
2021/01/25 07:35:46;;;;;;;43.42;15.32;;;12.30;69.60;;;;;;5107622;28;20082;-64
2021/01/25 07:38:13;;;;;;;45.75;15.93;;;12.30;69.20;;;;;;5077274;27;20034;-62
2021/01/25 07:40:40;;;;;;;45.80;16.65;;;12.30;70.10;;;;;;5107475;28;20029;-63
2021/01/25 07:43:07;;;;;;;44.65;16.73;;;12.40;71.60;;;;;;5090834;28;20050;-66
2021/01/25 07:45:33;;;;;;;;;;;12.40;71.20;;;;;;5111493;27;20400;-63
2021/01/25 07:47:59;;;;;;;43.92;16.40;;;12.40;71.00;;;;;;5105973;28;19973;-65
2021/01/25 07:50:26;;;;;;;;;;;12.40;70.80;;;;;;5103721;28;20111;-65
2021/01/25 07:52:58;;;;;;;42.03;17.30;;;12.40;70.40;;;;;;5091939;28;19925;-65
2021/01/25 07:55:25;;;;;;;44.17;18.35;;;12.40;70.60;;;;;;5111025;28;20103;-65
2021/01/25 07:57:51;;;;;;;;;;;12.40;71.10;;;;;;5091793;28;20432;-65
2021/01/25 08:00:24;;;;;;;44.50;19.27;;;12.40;71.40;;;;;;5107641;28;20021;-64
2021/01/25 08:03:16;;;;;;;46.58;20.13;;;12.40;70.80;;;;;;5111788;28;20509;-64
2021/01/25 08:05:44;;;;;;;42.55;17.80;;;12.40;69.40;;;;;;5109210;28;20061;-64
2021/01/25 08:08:12;;;;;;;46.70;17.50;;;12.40;69.00;;;;;;5087510;28;20031;-63
2021/01/25 08:10:40;;;;;;;47.22;18.67;;;12.40;69.30;;;;;;5104826;28;20095;-64
2021/01/25 08:13:15;;;;;;;45.10;21.20;;;12.40;69.30;;;;;;5106447;28;20051;-63
2021/01/25 08:16:00;;;;;;;58.88;23.63;;;12.40;69.50;;;;;;5101425;28;20042;-64
2021/01/25 08:18:34;;;;;;;61.30;24.83;;;12.30;69.10;;;;;;5104097;28;20082;-65
2021/01/25 08:21:04;;;;;;;61.50;26.13;;;12.40;70.40;;;;;;5104040;28;20106;-65
2021/01/25 08:23:40;;;;;;;62.30;25.83;;;12.40;69.80;;;;;;5103943;28;20372;-64
2021/01/25 08:26:09;;;;;;;59.35;25.30;;;12.40;70.50;;;;;;5089701;28;20049;-63
2021/01/25 08:28:41;;;;;;;61.08;24.08;;;12.40;70.60;;;;;;5107198;28;20395;-62
2021/01/25 08:31:29;;;;;;;59.35;22.50;;;12.30;71.00;;;;;;5104766;28;20099;-66
2021/01/25 08:34:03;;;;;;;58.97;19.42;;;12.30;71.40;;;;;;5092330;28;20062;-65
2021/01/25 08:36:36;;;;;;;45.05;18.20;;;12.20;71.70;;;;;;5105996;28;20540;-64
2021/01/25 08:39:15;;;;;;;40.53;18.52;;;12.30;70.30;;;;;;5106875;28;20043;-65
2021/01/25 08:41:52;;;;;;;49.28;18.33;;;12.30;70.00;;;;;;5102411;28;20031;-65
2021/01/25 08:44:22;;;;;;;53.13;21.70;;;12.40;70.30;;;;;;5102319;28;20038;-64
2021/01/25 08:46:49;;;;;;;57.25;23.20;;;12.40;70.30;;;;;;5110350;27;20375;-65
2021/01/25 08:49:16;;;;;;;63.03;25.85;;;12.40;70.50;;;;;;5102022;28;20509;-64
2021/01/25 08:52:01;;;;;;;54.05;22.67;;;12.40;70.60;;;;;;5107831;28;20046;-64
2021/01/25 08:54:31;;;;;;;73.40;24.63;;;12.30;70.60;;;;;;5105808;28;20590;-64
2021/01/25 08:56:58;;;;;;;59.30;23.58;;;12.30;69.60;;;;;;5107236;28;20057;-63
2021/01/25 08:59:39;;;;;;;54.35;24.08;;;12.20;69.60;;;;;;5107901;28;20046;-64
2021/01/25 09:02:21;;;;;;;60.95;26.77;;;12.20;69.30;;;;;;5106914;28;20049;-64
2021/01/25 09:04:52;;;;;;;72.72;27.80;;;12.10;69.90;;;;;;5101820;28;20046;-65
2021/01/25 09:07:23;;;;;;;69.28;30.13;;;12.10;70.00;;;;;;5103079;28;20386;-63
2021/01/25 09:09:49;;;;;;;73.55;32.22;;;12.10;70.00;;;;;;5105737;28;20064;-64
2021/01/25 09:12:17;;;;;;;83.00;32.20;;;12.00;70.40;;;;;;5108682;28;20034;-64
2021/01/25 09:14:44;;;;;;;89.28;32.95;;;12.00;70.90;;;;;;5108117;28;20538;-65
2021/01/25 09:17:12;;;;;;;72.50;33.22;;;12.00;71.20;;;;;;5105843;28;20047;-65
2021/01/25 09:19:39;;;;;;;71.22;32.33;;;12.00;71.90;;;;;;5107164;28;20117;-65
2021/01/25 09:22:07;;;;;;;69.53;32.92;;;12.00;72.00;;;;;;5107689;28;20091;-65
2021/01/25 09:24:34;;;;;;;80.05;34.05;;;11.90;72.20;;;;;;5092169;28;20047;-64
2021/01/25 09:27:01;;;;;;;71.93;32.45;;;11.90;72.20;;;;;;5090815;28;20036;-64
2021/01/25 09:29:27;;;;;;;85.85;36.30;;;11.90;74.00;;;;;;5107193;28;20035;-64
2021/01/25 09:31:55;;;;;;;77.43;36.05;;;11.80;74.40;;;;;;5108187;28;20039;-63
2021/01/25 09:34:23;;;;;;;74.75;36.42;;;11.80;74.70;;;;;;5107505;28;20070;-63
2021/01/25 09:36:49;;;;;;;89.72;36.63;;;11.80;75.10;;;;;;5107273;28;20565;-65
2021/01/25 09:39:16;;;;;;;68.35;35.03;;;11.80;76.40;;;;;;5105798;28;20135;-65
2021/01/25 09:41:46;;;;;;;69.50;32.47;;;11.70;77.00;;;;;;5107743;28;20031;-63
2021/01/25 09:44:14;;;;;;;68.45;30.98;;;11.70;77.20;;;;;;5109024;28;20034;-64
2021/01/25 09:46:42;;;;;;;66.60;28.27;;;11.70;77.50;;;;;;5111656;27;20040;-64
2021/01/25 09:49:12;;;;;;;60.60;27.50;;;11.70;77.40;;;;;;5112283;28;20398;-64
2021/01/25 09:51:40;;;;;;;64.40;28.42;;;11.70;77.80;;;;;;5094238;28;20033;-64
2021/01/25 09:54:07;;;;;;;66.45;28.20;;;11.70;78.40;;;;;;5109212;27;20071;-65
2021/01/25 09:56:33;;;;;;;61.15;27.60;;;11.60;79.50;;;;;;5093224;28;20063;-64
2021/01/25 09:59:00;;;;;;;49.00;24.90;;;11.60;80.40;;;;;;5113678;28;20041;-65
2021/01/25 10:01:26;;;;;;;;;;;11.50;81.70;;;;;;5112652;28;20503;-64
2021/01/25 10:03:52;;;;;;;56.75;23.52;;;11.40;82.60;;;;;;5112478;27;19930;-63
2021/01/25 10:06:18;;;;;;;;;;;11.40;85.00;;;;;;5108608;28;20036;-64
2021/01/25 10:08:45;;;;;;;65.05;22.40;;;11.40;86.90;;;;;;5109865;28;19942;-63
2021/01/25 10:11:12;;;;;;;45.40;24.00;;;11.40;87.80;;;;;;5107775;28;20523;-64
2021/01/25 10:13:38;;;;;;;;;;;11.40;88.50;;;;;;5109153;28;20063;-63
2021/01/25 10:16:04;;;;;;;49.50;22.42;;;11.40;89.90;;;;;;5109740;28;19971;-63
2021/01/25 10:18:31;;;;;;;41.90;20.70;;;11.40;90.70;;;;;;5111173;28;20042;-64
2021/01/25 10:20:58;;;;;;;;;;;11.40;90.70;;;;;;5112614;28;20034;-63
2021/01/25 10:23:25;;;;;;;44.08;19.63;;;11.30;91.60;;;;;;5113527;28;19926;-64
2021/01/25 10:25:52;;;;;;;39.42;20.55;;;11.30;93.30;;;;;;5110887;28;20063;-64
2021/01/25 10:28:19;;;;;;;40.50;20.98;;;11.30;94.40;;;;;;5110425;28;20047;-63
2021/01/25 10:30:46;;;;;;;35.75;19.77;;;11.20;95.70;;;;;;5092425;28;20032;-63
2021/01/25 10:33:13;;;;;;;40.35;20.40;;;11.20;96.60;;;;;;5111931;28;20047;-64
2021/01/25 10:35:40;;;;;;;38.05;21.70;;;11.10;96.90;;;;;;5102271;28;20552;-63
2021/01/25 10:38:07;;;;;;;42.15;22.38;;;11.10;98.70;;;;;;5094573;28;20435;-64
2021/01/25 10:40:34;;;;;;;47.20;22.73;;;11.10;98.70;;;;;;5067679;28;20131;-63
2021/01/25 10:43:01;;;;;;;44.47;23.90;;;11.00;99.10;;;;;;5090501;28;20505;-65
2021/01/25 10:45:27;;;;;;;;;;;11.00;99.60;;;;;;5074833;28;20510;-64
2021/01/25 10:47:53;;;;;;;53.20;23.20;;;11.00;99.90;;;;;;5073935;28;20304;-64
2021/01/25 10:50:21;;;;;;;38.17;20.38;;;10.80;99.90;;;;;;5090706;28;20453;-64
2021/01/25 10:52:49;;;;;;;38.20;19.45;;;10.80;99.90;;;;;;5089710;28;20037;-64
2021/01/25 10:55:16;;;;;;;48.70;21.27;;;10.80;99.90;;;;;;5083205;28;20078;-64
2021/01/25 10:57:42;;;;;;;33.88;18.38;;;10.80;99.90;;;;;;5074102;28;20481;-64
2021/01/25 11:00:12;;;;;;;37.00;19.95;;;10.80;99.90;;;;;;5074210;28;20036;-64
2021/01/25 11:02:39;;;;;;;43.33;21.38;;;10.70;99.90;;;;;;5089591;28;20120;-63
2021/01/25 11:05:09;;;;;;;42.70;20.70;;;10.70;99.90;;;;;;5090129;28;20033;-64
2021/01/25 11:07:38;;;;;;;47.55;20.88;;;10.50;99.90;;;;;;5085618;28;20132;-63
2021/01/25 11:10:06;;;;;;;45.90;20.58;;;10.60;99.90;;;;;;5090741;28;20030;-64
2021/01/25 11:12:33;;;;;;;46.17;19.98;;;10.60;99.90;;;;;;5084267;28;20374;-64
2021/01/25 11:14:59;;;;;;;50.33;22.30;;;10.60;99.90;;;;;;5085557;28;20196;-62
2021/01/25 11:17:28;;;;;;;;;;;10.50;99.90;;;;;;5088880;28;20051;-64
2021/01/25 11:19:55;;;;;;;64.93;28.10;;;10.30;99.90;;;;;;5087289;28;19974;-64
2021/01/25 11:22:21;;;;;;;;;;;10.40;99.90;;;;;;5089419;28;20057;-64
2021/01/25 11:24:47;;;;;;;36.33;17.48;;;10.40;99.90;;;;;;5089248;28;19953;-64
2021/01/25 11:27:13;;;;;;;;;;;10.30;99.90;;;;;;5087431;28;20101;-65
2021/01/25 11:29:40;;;;;;;33.20;15.50;;;10.40;99.90;;;;;;5086965;28;20012;-64
2021/01/25 11:32:06;;;;;;;;;;;10.40;99.90;;;;;;5087415;28;20045;-64
2021/01/25 11:34:33;;;;;;;24.38;13.02;;;10.30;99.90;;;;;;5083481;28;20409;-64
2021/01/25 11:37:00;;;;;;;30.85;13.68;;;10.30;99.90;;;;;;5081455;28;20088;-64
2021/01/25 11:39:28;;;;;;;27.85;13.50;;;10.30;99.90;;;;;;5087636;28;20498;-64
2021/01/25 11:41:55;;;;;;;31.20;14.50;;;10.30;99.90;;;;;;5090176;28;20044;-63
2021/01/25 11:44:21;;;;;;;33.80;14.20;;;10.20;99.90;;;;;;5072264;28;20057;-64
2021/01/25 11:46:47;;;;;;;;;;;10.30;99.90;;;;;;5084842;28;20057;-62
2021/01/25 11:49:14;;;;;;;26.73;13.27;;;10.30;99.90;;;;;;5090308;28;20293;-64
2021/01/25 11:51:42;;;;;;;24.70;13.60;;;10.20;99.90;;;;;;5085397;28;20443;-64
2021/01/25 11:54:08;;;;;;;22.50;10.93;;;10.20;99.90;;;;;;5084563;28;20411;-63
2021/01/25 11:56:35;;;;;;;21.67;10.55;;;10.20;99.90;;;;;;5085474;28;20052;-64
2021/01/25 11:59:01;;;;;;;;;;;10.10;99.90;;;;;;5089364;28;20082;-63
2021/01/25 12:01:28;;;;;;;20.52;10.40;;;10.00;99.90;;;;;;5084219;28;19924;-64
2021/01/25 12:03:54;;;;;;;;;;;10.10;99.90;;;;;;5084770;28;20493;-64
2021/01/25 12:06:21;;;;;;;20.73;9.50;;;10.00;99.90;;;;;;5087896;28;19982;-63
2021/01/25 12:08:48;;;;;;;20.90;10.20;;;10.00;99.90;;;;;;5088211;28;20049;-63
2021/01/25 12:11:14;;;;;;;18.52;9.85;;;10.10;99.90;;;;;;5087657;28;20067;-64
2021/01/25 12:13:40;;;;;;;;;;;10.00;99.90;;;;;;5074757;28;20068;-60
2021/01/25 12:16:10;;;;;;;20.65;10.52;;;9.90;99.90;;;;;;5089312;28;19924;-62
2021/01/25 12:18:37;;;;;;;19.80;11.05;;;9.80;99.90;;;;;;5087723;28;20038;-63
2021/01/25 12:21:03;;;;;;;20.83;10.27;;;9.70;99.90;;;;;;5087491;28;20045;-64
2021/01/25 12:23:30;;;;;;;16.95;9.73;;;9.70;99.90;;;;;;5087459;28;20045;-64
2021/01/25 12:25:57;;;;;;;20.40;9.25;;;9.80;99.90;;;;;;5083065;28;20098;-64
2021/01/25 12:28:23;;;;;;;;;;;9.80;99.90;;;;;;5088704;28;20110;-64
2021/01/25 12:30:49;;;;;;;18.27;8.48;;;9.90;99.90;;;;;;5087467;28;20386;-64
2021/01/25 12:33:16;;;;;;;17.85;9.05;;;9.80;99.90;;;;;;5086254;28;20078;-64
2021/01/25 12:35:42;;;;;;;;;;;9.80;99.90;;;;;;5086724;28;20073;-64
2021/01/25 12:38:08;;;;;;;14.68;8.35;;;9.70;99.90;;;;;;5087080;28;19922;-63
2021/01/25 12:40:35;;;;;;;;;;;9.80;99.90;;;;;;5085269;28;20037;-64
2021/01/25 12:43:01;;;;;;;20.98;8.30;;;9.80;99.90;;;;;;5086021;28;19937;-63
2021/01/25 12:45:28;;;;;;;;;;;9.80;99.90;;;;;;5082830;28;20049;-64
2021/01/25 12:47:54;;;;;;;18.40;8.60;;;9.80;99.90;;;;;;5085496;28;19925;-64
2021/01/25 12:50:21;;;;;;;16.40;7.90;;;9.70;99.90;;;;;;5087538;28;20050;-64
2021/01/25 12:52:48;;;;;;;18.38;8.00;;;9.80;99.90;;;;;;5080853;28;20039;-64
2021/01/25 12:55:14;;;;;;;22.30;7.78;;;9.80;99.90;;;;;;5084262;28;20553;-63